Main page
METAR-TAF:

METAR-TAF

Airports :

Augusta State Airport

Augusta, Maine, United States

latitude: 44-19-14N, longitude: 069-47-50W, elevation: 351 ft

Current weather observation

The report was made 14 minutes ago, at 05:53 UTC
Wind 7 mph from the North
Temperature 27°F
Humidity 68%
Pressure 30.34 in. Hg
Visibility: 10 miles
Clear sky

METAR: KAUG 240553Z AUTO 35006KT 10SM CLR M03/M08 A3034 RMK AO2 SLP277 T10331078 10006 21039 50003

Time: 01:07 (06:07 UTC)

Forecast

The report was made 33 minutes ago, at 05:34 UTC
Forecast valid from 24 at 06 UTC to 25 at 06 UTC
Wind 3 mph from variable directions
Visibility: 6 miles
Broken clouds at a height of 20000 ft
From 24 at 1700 UTC
Wind 6 mph from the Northeast
Visibility: 6 miles
Scattered clouds at a height of 20000 ft
From 25 at 0300 UTC
Wind 6 mph from the Northeast
Visibility: 6 miles
Scattered clouds at a height of 2500 ft
Broken clouds at a height of 7000 ft

TAF: KAUG 240534Z 2406/2506 VRB03KT P6SM BKN200 FM241700 04005KT P6SM SCT200 FM250300 04005KT P6SM SCT025 BKN070

Weather observations and forecasts of more than 4000 airports (METAR and TAF reports).

The available stations are represented by yellow and red dots on the map.

Hover mouse over dot to see the name of the station.

Then click to see weather observations and forecasts.

To change the map : click on the green buttons with a black cross to zoom in, on the green button with a dash to zoom out, or on the green arrows for adjacent maps.


METAR-TAF: